Time;durP1;ratioP1;P1;durP2;ratioP2;P2;SDS_P1;SDS_P2;PMS_P1;PMS_P2;Temp;Humidity;BMP_temperature;BMP_pressure;BME280_temperature;BME280_humidity;BME280_pressure;Samples;Min_cycle;Max_cycle;Signal;HPM_P1;HPM_P2
2022/06/24 00:02:02;;;;;;;12.33;9.37;;;13.70;99.90;13.00;100476;;;;545390;263;24220;-82
2022/06/24 00:04:28;;;;;;;11.50;8.50;;;13.70;99.90;13.10;100471;;;;547008;259;24160;-77
2022/06/24 00:06:58;;;;;;;11.13;8.87;;;13.70;99.90;13.00;100469;;;;546515;259;24147;-77
2022/06/24 00:09:23;;;;;;;10.67;8.57;;;13.60;99.90;13.00;100476;;;;544638;259;24180;-81
2022/06/24 00:12:13;;;;;;;10.17;8.00;;;13.60;99.90;13.00;100474;;;;546199;259;24145;-78
2022/06/24 00:14:40;;;;;;;10.57;8.50;;;13.60;99.90;13.00;100469;;;;544574;259;24145;-80
2022/06/24 00:17:06;;;;;;;10.20;8.23;;;13.60;99.90;13.00;100464;;;;554800;259;25191;-80
2022/06/24 00:19:34;;;;;;;14.73;9.37;;;13.60;99.90;12.90;100464;;;;546162;259;24146;-77
2022/06/24 00:22:12;;;;;;;10.50;8.37;;;13.60;99.90;12.90;100473;;;;545051;259;24145;-78
2022/06/24 00:24:41;;;;;;;18.60;10.30;;;13.50;99.90;12.90;100468;;;;549662;259;24173;-75
2022/06/24 00:27:25;;;;;;;17.03;9.47;;;13.50;99.90;12.90;100471;;;;554814;256;24167;-77
2022/06/24 00:29:50;;;;;;;17.00;10.30;;;13.50;99.90;12.90;100466;;;;554362;259;24167;-76
2022/06/24 00:32:32;;;;;;;13.93;10.40;;;13.50;99.90;12.90;100471;;;;546937;259;24157;-75
2022/06/24 00:35:06;;;;;;;14.57;10.23;;;13.50;99.90;12.90;100461;;;;537728;263;24166;-78
2022/06/24 00:37:34;;;;;;;17.30;11.27;;;13.50;99.90;12.90;100470;;;;547009;259;24152;-80
2022/06/24 00:40:14;;;;;;;13.33;10.63;;;13.50;99.90;12.90;100465;;;;546655;259;24217;-77
2022/06/24 00:42:40;;;;;;;18.13;12.27;;;13.60;99.90;12.90;100466;;;;545478;258;24167;-76
2022/06/24 00:45:42;;;;;;;19.50;13.00;;;13.60;99.90;13.00;100472;;;;554826;256;24156;-76
2022/06/24 00:48:18;;;;;;;17.77;11.37;;;13.60;99.90;13.00;100481;;;;536997;263;24252;-76
2022/06/24 00:50:49;;;;;;;21.90;12.90;;;13.60;99.90;13.00;100471;;;;554577;255;24150;-78
2022/06/24 00:53:15;;;;;;;17.23;11.90;;;13.60;99.90;13.00;100464;;;;547071;258;24209;-76
2022/06/24 00:55:44;;;;;;;22.17;14.07;;;13.60;99.90;13.00;100462;;;;547551;258;24144;-78
2022/06/24 00:58:15;;;;;;;17.33;12.10;;;13.60;99.90;13.10;100466;;;;555655;255;24187;-77
2022/06/24 01:00:45;;;;;;;19.03;13.00;;;13.70;99.90;13.10;100456;;;;555461;255;24141;-77
2022/06/24 01:03:14;;;;;;;19.60;12.80;;;13.60;99.90;13.10;100466;;;;555378;253;24151;-76
2022/06/24 01:05:41;;;;;;;18.07;12.40;;;13.70;99.90;13.00;100459;;;;537273;263;24267;-76
2022/06/24 01:08:09;;;;;;;19.90;11.73;;;13.60;99.90;13.00;100461;;;;555267;256;24218;-77
2022/06/24 01:10:37;;;;;;;18.13;11.67;;;13.70;99.90;13.00;100466;;;;555272;254;24191;-79
2022/06/24 01:13:11;;;;;;;18.43;11.53;;;13.60;99.90;13.00;100465;;;;555129;258;24142;-78
2022/06/24 01:15:39;;;;;;;21.30;12.47;;;13.60;99.90;13.10;100464;;;;552987;259;24145;-78
2022/06/24 01:18:10;;;;;;;20.07;12.57;;;13.60;99.90;13.00;100464;;;;545097;263;24213;-79
2022/06/24 01:20:34;;;;;;;15.63;11.50;;;13.60;99.90;13.10;100467;;;;537188;263;24166;-79
2022/06/24 01:23:02;;;;;;;16.80;11.57;;;13.70;99.90;13.10;100462;;;;555019;258;24258;-77
2022/06/24 01:25:31;;;;;;;18.70;11.93;;;13.70;99.90;13.10;100460;;;;545030;261;24148;-77
2022/06/24 01:27:59;;;;;;;18.27;11.13;;;13.70;99.90;13.10;100454;;;;555063;256;24170;-77
2022/06/24 01:30:28;;;;;;;16.03;11.63;;;13.70;99.90;13.10;100455;;;;546881;259;24136;-79
2022/06/24 01:32:56;;;;;;;14.23;11.00;;;13.70;99.90;13.10;100462;;;;554826;255;24160;-79
2022/06/24 01:35:24;;;;;;;15.97;11.20;;;13.70;99.90;13.10;100461;;;;544510;262;24155;-77
2022/06/24 01:37:52;;;;;;;15.90;10.83;;;13.70;99.90;13.10;100459;;;;554610;255;24177;-80
2022/06/24 01:40:20;;;;;;;17.60;11.20;;;13.70;99.90;13.20;100456;;;;544555;263;24159;-80
2022/06/24 01:42:48;;;;;;;18.10;11.33;;;13.70;99.90;13.20;100465;;;;554615;258;24136;-84
2022/06/24 01:45:16;;;;;;;19.17;11.87;;;13.80;99.90;13.20;100458;;;;544637;263;24178;-80
2022/06/24 01:47:44;;;;;;;16.03;11.17;;;13.80;99.90;13.20;100463;;;;554509;258;24149;-80
2022/06/24 01:50:12;;;;;;;15.30;10.73;;;13.80;99.90;13.20;100460;;;;544580;259;24197;-81
2022/06/24 01:52:40;;;;;;;13.70;10.27;;;13.80;99.90;13.20;100463;;;;554447;258;24160;-82
2022/06/24 01:55:08;;;;;;;13.53;9.13;;;13.80;99.90;13.20;100458;;;;544863;263;24200;-78
2022/06/24 01:57:36;;;;;;;14.33;9.37;;;13.80;99.90;13.20;100461;;;;554907;258;24141;-80
2022/06/24 02:00:03;;;;;;;14.00;9.77;;;13.80;99.90;13.20;100466;;;;544883;263;24198;-82
2022/06/24 02:02:33;;;;;;;12.17;9.97;;;13.80;99.90;13.20;100468;;;;544925;260;24158;-78
2022/06/24 02:04:59;;;;;;;17.63;9.30;;;13.80;99.90;13.20;100468;;;;555503;254;24137;-80
2022/06/24 02:07:27;;;;;;;10.20;8.83;;;13.80;99.90;13.20;100456;;;;556018;257;24144;-78
2022/06/24 02:15:28;;;;;;;12.03;9.67;;;13.80;99.90;13.30;100464;;;;545429;258;24160;-77
2022/06/24 02:17:56;;;;;;;10.37;8.60;;;13.90;99.90;13.30;100458;;;;545362;258;24163;-78
2022/06/24 02:20:24;;;;;;;12.33;9.17;;;13.90;99.90;13.30;100456;;;;545434;258;24129;-78
2022/06/24 02:22:52;;;;;;;18.33;8.60;;;13.90;99.90;13.30;100462;;;;545379;259;24158;-78
2022/06/24 02:25:19;;;;;;;9.53;8.07;;;13.90;99.90;13.30;100455;;;;545500;259;24128;-78
2022/06/24 02:27:47;;;;;;;12.17;9.33;;;13.90;99.90;13.30;100455;;;;545268;259;24138;-77
2022/06/24 02:30:15;;;;;;;11.30;8.70;;;13.90;99.90;13.40;100459;;;;545103;259;24132;-78
2022/06/24 02:32:43;;;;;;;14.03;9.17;;;14.00;99.90;13.40;100455;;;;545008;259;24166;-77
2022/06/24 02:35:11;;;;;;;9.83;8.77;;;14.00;99.90;13.40;100460;;;;544981;259;24142;-76
2022/06/24 02:37:39;;;;;;;12.87;9.53;;;14.00;99.90;13.50;100464;;;;544635;259;24134;-76
2022/06/24 02:42:56;;;;;;;13.13;9.60;;;14.00;99.90;13.60;100466;;;;544742;259;24219;-77
2022/06/24 02:45:28;;;;;;;15.07;11.03;;;14.20;99.90;13.70;100466;;;;554495;256;24181;-77
2022/06/24 02:47:52;;;;;;;10.13;9.07;;;14.20;99.90;13.70;100468;;;;546525;259;24156;-77
2022/06/24 02:50:20;;;;;;;12.27;9.33;;;14.30;99.90;13.80;100471;;;;555024;255;24144;-79
2022/06/24 02:52:48;;;;;;;16.60;9.10;;;14.40;99.90;13.80;100468;;;;544842;259;24148;-79
2022/06/24 02:55:16;;;;;;;11.20;10.03;;;14.40;99.90;13.90;100467;;;;545110;259;24158;-77
2022/06/24 02:57:43;;;;;;;10.70;9.57;;;14.50;99.90;14.00;100466;;;;555589;256;24184;-78
2022/06/24 03:00:15;;;;;;;12.20;9.63;;;14.60;99.90;14.10;100468;;;;545356;263;24220;-82
2022/06/24 03:02:39;;;;;;;15.83;9.87;;;14.60;99.90;14.10;100467;;;;537674;263;24151;-80
2022/06/24 03:05:07;;;;;;;14.03;10.17;;;14.70;99.90;14.20;100465;;;;544844;263;24208;-78
2022/06/24 03:07:35;;;;;;;12.90;9.70;;;14.80;99.90;14.30;100459;;;;552671;259;24180;-77
2022/06/24 03:10:03;;;;;;;14.50;10.60;;;14.80;99.90;14.40;100464;;;;554827;256;24126;-79
2022/06/24 03:12:31;;;;;;;14.70;11.30;;;14.90;99.90;14.50;100467;;;;552709;257;24123;-76
2022/06/24 03:14:59;;;;;;;12.87;11.53;;;15.10;99.90;15.10;100471;;;;544795;260;24159;-76
2022/06/24 03:17:27;;;;;;;16.80;10.97;;;15.60;99.90;15.80;100477;;;;555989;257;24199;-78
2022/06/24 03:19:55;;;;;;;13.77;10.83;;;16.20;99.90;16.50;100474;;;;545744;262;24226;-78
2022/06/24 03:22:23;;;;;;;14.00;10.53;;;16.90;99.90;17.10;100471;;;;555535;257;25237;-77
2022/06/24 03:24:51;;;;;;;11.77;10.67;;;17.60;99.90;17.90;100474;;;;545468;262;24183;-77
2022/06/24 03:27:19;;;;;;;11.40;10.20;;;18.40;99.90;18.50;100474;;;;555278;255;24199;-77
2022/06/24 03:29:47;;;;;;;9.57;8.67;;;19.80;99.90;19.20;100481;;;;545328;262;24190;-78
2022/06/24 03:32:15;;;;;;;7.80;7.00;;;19.70;99.90;19.80;100476;;;;545293;261;24193;-77
2022/06/24 03:34:43;;;;;;;9.23;6.70;;;20.40;99.90;20.50;100476;;;;546744;259;24194;-77
2022/06/24 03:37:14;;;;;;;6.93;6.17;;;21.10;99.90;21.00;100473;;;;544876;259;24142;-77
2022/06/24 03:39:39;;;;;;;6.13;5.63;;;21.60;99.90;21.60;100473;;;;554553;257;24171;-77
2022/06/24 03:42:07;;;;;;;6.40;5.80;;;22.20;99.90;22.20;100478;;;;544699;259;24136;-77
2022/06/24 03:44:35;;;;;;;7.50;5.47;;;22.90;99.90;22.90;100475;;;;544552;259;24188;-77
2022/06/24 03:47:03;;;;;;;6.17;5.67;;;23.50;99.90;23.40;100475;;;;544465;259;24156;-77
2022/06/24 03:49:31;;;;;;;6.60;6.00;;;24.10;99.90;23.90;100469;;;;544547;259;24200;-78
2022/06/24 03:52:02;;;;;;;6.20;5.50;;;24.60;99.90;24.40;100484;;;;544495;259;23186;-78
2022/06/24 03:54:27;;;;;;;6.10;5.60;;;25.10;99.90;24.80;100474;;;;552180;259;24147;-78
2022/06/24 03:56:55;;;;;;;5.90;5.07;;;26.00;99.90;25.30;100475;;;;544314;259;24161;-81
2022/06/24 03:59:24;;;;;;;6.47;5.13;;;26.40;99.90;25.70;100485;;;;544656;259;23193;-79
2022/06/24 04:01:56;;;;;;;8.50;5.27;;;26.90;99.90;26.20;100486;;;;544644;259;24275;-81
2022/06/24 04:04:23;;;;;;;5.43;4.93;;;26.90;99.90;26.60;100492;;;;546613;259;24182;-76
2022/06/24 04:06:48;;;;;;;5.93;4.90;;;27.40;99.90;27.10;100487;;;;546618;259;23171;-76
2022/06/24 04:09:20;;;;;;;5.50;4.90;;;27.90;99.90;27.60;100492;;;;544631;259;23136;-77
2022/06/24 04:11:48;;;;;;;5.90;4.97;;;28.40;98.70;28.10;100493;;;;544509;259;24231;-76
2022/06/24 04:14:12;;;;;;;4.82;4.35;;;28.90;97.40;28.70;100498;;;;546586;259;23176;-78
2022/06/24 04:16:41;;;;;;;6.15;5.55;;;30.00;92.80;29.20;100486;;;;544864;262;23192;-78
2022/06/24 04:19:09;;;;;;;5.22;4.65;;;30.50;91.70;29.60;100491;;;;554838;258;23221;-77
2022/06/24 04:21:38;;;;;;;5.10;4.70;;;31.00;88.40;30.30;100492;;;;544694;259;23172;-76
2022/06/24 04:24:06;;;;;;;5.35;4.95;;;31.00;88.30;30.70;100497;;;;544723;259;23150;-76
2022/06/24 04:26:36;;;;;;;9.13;5.12;;;31.50;85.60;31.30;100502;;;;544717;259;23158;-76
2022/06/24 04:29:03;;;;;;;11.50;5.85;;;32.20;81.20;31.80;100500;;;;545791;258;24140;-78
2022/06/24 04:31:31;;;;;;;6.20;5.47;;;32.80;77.80;32.30;100501;;;;545729;258;23158;-77
2022/06/24 04:33:59;;;;;;;7.05;5.47;;;33.30;75.60;33.10;100502;;;;545513;258;23163;-76
2022/06/24 04:36:27;;;;;;;8.38;5.95;;;34.00;71.20;33.40;100508;;;;545484;258;23159;-77
2022/06/24 04:38:55;;;;;;;5.90;5.35;;;34.40;68.80;33.80;100509;;;;545223;258;23143;-79
2022/06/24 04:41:23;;;;;;;6.07;5.43;;;34.90;66.20;34.60;100512;;;;545082;258;24180;-77
2022/06/24 04:43:51;;;;;;;6.75;5.00;;;35.50;62.90;34.80;100520;;;;545296;258;23143;-78
2022/06/24 04:46:19;;;;;;;6.85;5.37;;;36.00;61.80;35.30;100529;;;;545257;259;23165;-81
2022/06/24 04:48:50;;;;;;;8.38;5.18;;;36.50;60.10;35.80;100531;;;;545406;259;23206;-80
2022/06/24 04:51:16;;;;;;;6.03;5.55;;;36.90;58.90;36.00;100532;;;;545215;259;23263;-77
2022/06/24 04:53:44;;;;;;;6.50;5.90;;;37.30;57.30;36.60;100531;;;;545523;259;23148;-77
2022/06/24 04:56:12;;;;;;;6.50;5.87;;;37.80;55.70;36.80;100534;;;;545441;259;23142;-76
2022/06/24 04:58:40;;;;;;;9.77;6.43;;;38.00;55.20;37.10;100540;;;;545571;259;23155;-77
2022/06/24 05:01:09;;;;;;;12.55;7.28;;;38.40;54.30;37.40;100542;;;;545726;259;23181;-77
2022/06/24 05:03:37;;;;;;;10.55;5.80;;;38.70;55.00;38.10;100542;;;;545426;259;23168;-77
2022/06/24 05:06:05;;;;;;;8.57;6.22;;;39.70;51.80;38.50;100543;;;;544641;259;23286;-78
2022/06/24 05:08:34;;;;;;;8.25;5.18;;;40.10;50.80;39.00;100542;;;;544618;259;23147;-79
2022/06/24 05:11:02;;;;;;;6.47;5.80;;;40.10;50.60;39.30;100545;;;;544797;259;23183;-77
2022/06/24 05:13:30;;;;;;;7.72;5.85;;;40.50;50.30;39.90;100542;;;;544811;259;23161;-77
2022/06/24 05:15:58;;;;;;;6.03;5.43;;;41.00;48.90;40.40;100544;;;;544727;259;23169;-77
2022/06/24 05:18:26;;;;;;;8.43;5.80;;;41.50;47.80;41.10;100549;;;;540013;259;35596;-77
2022/06/24 05:20:53;;;;;;;5.68;4.78;;;42.00;46.10;40.80;100541;;;;544861;259;23139;-78
2022/06/24 05:23:21;;;;;;;5.60;5.10;;;42.10;46.50;41.20;100532;;;;544861;259;23157;-77
2022/06/24 05:25:49;;;;;;;5.40;4.90;;;42.30;44.90;41.40;100541;;;;544768;259;23148;-78
2022/06/24 05:28:18;;;;;;;6.68;5.30;;;42.70;44.30;41.70;100552;;;;544762;259;23241;-77
2022/06/24 05:30:47;;;;;;;6.00;4.70;;;43.10;44.40;42.20;100550;;;;544863;259;23149;-78
2022/06/24 05:33:15;;;;;;;7.22;4.93;;;43.60;43.20;42.70;100551;;;;544774;259;23154;-77
2022/06/24 05:35:43;;;;;;;6.28;4.60;;;43.60;43.20;42.90;100554;;;;544747;259;23162;-78
2022/06/24 05:38:11;;;;;;;5.70;4.93;;;43.90;43.20;43.40;100555;;;;544956;259;23168;-79
2022/06/24 05:40:39;;;;;;;7.50;4.82;;;44.40;42.80;44.00;100561;;;;545832;258;23211;-78
2022/06/24 05:43:07;;;;;;;9.15;5.25;;;44.90;42.20;44.50;100556;;;;545431;258;25354;-81
2022/06/24 05:45:35;;;;;;;6.20;4.62;;;45.20;41.90;44.80;100563;;;;545577;258;23227;-82
2022/06/24 05:48:06;;;;;;;7.85;4.60;;;45.70;41.30;45.50;100563;;;;545473;258;23148;-77
2022/06/24 05:50:31;;;;;;;7.72;4.05;;;46.20;40.80;45.90;100562;;;;547779;258;23177;-78
2022/06/24 05:55:46;;;;;;;5.93;4.30;;;47.10;39.50;46.60;100565;;;;545245;258;23139;-78
2022/06/24 05:58:18;;;;;;;11.40;4.28;;;47.80;39.30;47.00;100554;;;;545522;259;23125;-79
2022/06/24 06:00:43;;;;;;;12.93;4.12;;;47.70;38.70;47.10;100556;;;;548470;259;23163;-84
2022/06/24 06:03:14;;;;;;;10.05;4.18;;;47.90;38.60;47.40;100552;;;;545805;259;23154;-81
2022/06/24 06:05:38;;;;;;;9.27;4.05;;;48.10;38.60;47.80;100560;;;;545451;259;23190;-78
2022/06/24 06:08:10;;;;;;;6.57;3.58;;;48.50;37.90;48.10;100551;;;;545604;259;23153;-78
2022/06/24 06:10:38;;;;;;;6.78;3.70;;;48.70;37.70;48.50;100558;;;;555302;254;23154;-88
2022/06/24 06:13:10;;;;;;;14.35;3.90;;;49.00;36.80;48.60;100556;;;;545850;259;23166;-78
2022/06/24 06:15:34;;;;;;;6.75;3.70;;;49.30;36.80;48.90;100558;;;;547663;259;23150;-79
2022/06/24 06:18:02;;;;;;;6.97;3.53;;;49.60;35.80;48.80;100565;;;;544968;259;23154;-78
2022/06/24 06:20:30;;;;;;;11.95;4.62;;;49.60;35.80;49.10;100560;;;;544662;259;23190;-84
2022/06/24 06:22:59;;;;;;;9.10;4.50;;;49.80;35.30;49.10;100555;;;;544754;259;23131;-84
2022/06/24 06:25:27;;;;;;;5.93;3.30;;;49.80;35.20;49.00;100560;;;;544746;259;23162;-86
2022/06/24 06:27:55;;;;;;;21.12;4.50;;;49.80;35.20;48.90;100565;;;;544618;259;23224;-81
2022/06/24 06:30:23;;;;;;;18.40;3.60;;;49.60;35.10;48.50;100569;;;;544534;259;23170;-79
2022/06/24 06:32:51;;;;;;;8.85;3.53;;;49.50;34.90;48.70;100566;;;;544772;259;24222;-87
2022/06/24 06:35:19;;;;;;;7.97;3.53;;;49.40;35.70;49.10;100566;;;;550453;259;23154;-89
2022/06/24 06:37:48;;;;;;;11.30;3.58;;;49.70;35.10;49.40;100570;;;;545179;259;23144;-76
2022/06/24 06:40:17;;;;;;;10.15;3.58;;;49.80;34.90;50.10;100573;;;;544705;259;23143;-78
2022/06/24 06:42:44;;;;;;;11.60;3.75;;;50.30;34.70;49.90;100567;;;;544365;259;23155;-79
2022/06/24 06:45:12;;;;;;;12.70;3.62;;;50.50;33.40;50.10;100568;;;;544308;259;23206;-84
2022/06/24 06:47:40;;;;;;;9.38;3.75;;;50.50;33.60;49.80;100565;;;;544325;259;23189;-80
2022/06/24 06:50:12;;;;;;;8.65;3.28;;;50.50;33.60;50.00;100579;;;;544455;259;23165;-78
2022/06/24 06:52:37;;;;;;;11.02;3.55;;;50.60;32.90;49.90;100565;;;;547612;258;23206;-80
2022/06/24 06:55:05;;;;;;;7.18;3.08;;;50.50;32.80;49.60;100571;;;;545228;258;23212;-86
2022/06/24 06:57:34;;;;;;;8.10;3.40;;;50.10;32.80;49.20;100581;;;;540623;258;35588;-86
2022/06/24 07:00:02;;;;;;;6.18;3.40;;;50.10;32.80;48.80;100575;;;;545135;258;23199;-88
2022/06/24 07:02:30;;;;;;;7.15;3.55;;;49.70;33.20;49.00;100569;;;;545844;258;24241;-87
2022/06/24 07:04:59;;;;;;;35.05;6.12;;;50.10;33.80;50.00;100565;;;;545433;258;24199;-85
2022/06/24 07:07:27;;;;;;;8.60;3.55;;;50.70;33.00;50.50;100562;;;;545523;258;23162;-88
2022/06/24 07:09:57;;;;;;;3.62;3.33;;;51.10;32.80;50.70;100564;;;;545324;259;23132;-85
2022/06/24 07:12:25;;;;;;;6.87;3.83;;;51.10;33.00;50.40;100563;;;;545348;259;23215;-87
2022/06/24 07:14:53;;;;;;;4.87;3.72;;;51.10;33.00;50.40;100561;;;;547419;259;23150;-88
2022/06/24 07:17:23;;;;;;;8.45;4.45;;;51.00;33.60;49.90;100556;;;;545679;261;23266;-89
2022/06/24 07:19:48;;;;;;;6.32;4.43;;;50.80;33.30;49.90;100560;;;;555644;256;23163;-85
2022/06/24 07:22:16;;;;;;;6.90;4.40;;;50.60;33.70;49.30;100564;;;;540883;259;35581;-80
2022/06/24 07:24:44;;;;;;;9.10;4.10;;;50.30;33.20;48.80;100568;;;;545853;259;23143;-84
2022/06/24 07:27:13;;;;;;;8.55;4.85;;;49.80;34.30;49.10;100561;;;;545695;259;23148;-88
2022/06/24 07:29:41;;;;;;;5.28;4.82;;;49.80;34.20;48.50;100568;;;;545437;259;23179;-89
2022/06/24 07:32:09;;;;;;;9.75;3.90;;;49.40;34.40;48.40;100566;;;;545350;259;23143;-87
2022/06/24 07:34:37;;;;;;;14.48;5.25;;;49.30;34.60;49.20;100560;;;;546724;259;23155;-87
2022/06/24 07:37:05;;;;;;;4.90;4.43;;;49.60;34.50;49.80;100561;;;;544867;259;23162;-80
2022/06/24 07:39:33;;;;;;;26.10;5.65;;;50.10;34.40;50.30;100555;;;;547272;259;23173;-84
2022/06/24 07:42:00;;;;;;;11.02;4.53;;;50.70;33.60;50.80;100561;;;;545340;259;23143;-78
2022/06/24 07:44:28;;;;;;;6.05;5.03;;;51.00;33.40;51.50;100565;;;;545520;259;23159;-78
2022/06/24 07:46:56;;;;;;;7.72;4.75;;;51.70;33.30;50.90;100564;;;;544815;259;23159;-86
2022/06/24 07:49:24;;;;;;;8.48;5.00;;;51.50;32.60;50.00;100568;;;;546791;259;23148;-89
2022/06/24 07:51:56;;;;;;;10.25;4.85;;;51.20;32.90;49.40;100560;;;;544806;259;23171;-86
2022/06/24 07:54:20;;;;;;;49.38;7.82;;;50.50;33.60;49.50;100561;;;;554899;257;23209;-88
2022/06/24 07:56:57;;;;;;;9.30;4.82;;;50.30;33.60;48.90;100569;;;;544762;259;23147;-88
2022/06/24 07:59:31;;;;;;;7.65;4.72;;;50.00;33.20;47.70;100559;;;;544992;259;25234;-87
2022/06/24 08:01:59;;;;;;;12.15;3.78;;;49.00;34.00;47.00;100561;;;;545318;257;23162;-84
2022/06/24 08:04:28;;;;;;;8.60;4.40;;;48.20;34.50;46.70;100559;;;;556580;257;23178;-87
2022/06/24 08:06:54;;;;;;;6.90;4.20;;;47.80;34.70;47.00;100566;;;;556170;256;23146;-84
2022/06/24 08:09:23;;;;;;;8.20;4.20;;;47.80;34.80;46.70;100560;;;;555997;256;23196;-86
2022/06/24 08:11:50;;;;;;;4.10;3.70;;;47.60;34.80;46.60;100559;;;;550608;258;23162;-85
2022/06/24 08:14:18;;;;;;;5.78;4.30;;;47.50;34.90;47.10;100560;;;;548002;258;23180;-83
2022/06/24 08:16:46;;;;;;;23.98;3.95;;;47.80;34.50;46.60;100560;;;;555577;258;23158;-85
2022/06/24 08:19:18;;;;;;;11.95;3.90;;;47.50;34.30;46.80;100557;;;;545838;262;23176;-79
2022/06/24 08:21:42;;;;;;;7.45;3.67;;;47.50;34.20;46.80;100559;;;;547597;259;24239;-85
2022/06/24 08:24:14;;;;;;;14.60;3.85;;;47.40;34.20;46.30;100549;;;;545255;259;23148;-78
2022/06/24 08:26:38;;;;;;;4.40;3.90;;;47.40;34.20;45.30;100546;;;;545291;258;23145;-80
2022/06/24 08:29:06;;;;;;;9.50;3.33;;;46.70;34.50;45.30;100539;;;;545318;259;23143;-83
2022/06/24 08:31:35;;;;;;;8.07;3.50;;;46.40;35.60;45.70;100534;;;;545705;259;23156;-84
2022/06/24 08:34:03;;;;;;;4.90;3.28;;;46.30;35.50;46.80;100539;;;;545645;259;23149;-86
2022/06/24 08:36:31;;;;;;;5.93;3.08;;;47.10;35.10;47.10;100531;;;;545638;259;23139;-87
2022/06/24 08:38:59;;;;;;;13.60;3.45;;;47.70;33.60;46.30;100531;;;;545139;259;23143;-86
2022/06/24 08:41:30;;;;;;;13.55;3.67;;;47.50;33.10;45.60;100535;;;;545422;259;23142;-85
2022/06/24 08:43:58;;;;;;;11.73;3.47;;;46.90;33.60;45.60;100530;;;;555991;258;23152;-81
2022/06/24 08:46:23;;;;;;;7.72;3.08;;;46.70;34.40;46.30;100522;;;;556188;256;23229;-84
2022/06/24 08:48:53;;;;;;;3.47;2.78;;;47.10;34.50;47.30;100512;;;;545351;255;23148;-84
2022/06/24 08:51:18;;;;;;;9.23;3.25;;;47.80;34.00;48.40;100508;;;;547255;259;23170;-84
2022/06/24 08:53:46;;;;;;;7.22;4.00;;;48.70;32.90;49.00;100519;;;;547137;259;23144;-80
2022/06/24 08:56:14;;;;;;;9.40;3.55;;;49.60;32.30;48.20;100516;;;;537243;263;23195;-87
2022/06/24 08:58:42;;;;;;;6.60;3.30;;;49.50;31.80;48.10;100507;;;;537210;263;23193;-80
2022/06/24 09:01:10;;;;;;;6.40;3.20;;;49.30;32.30;48.50;100508;;;;550599;258;35677;-81
2022/06/24 09:03:44;;;;;;;8.25;3.70;;;49.60;32.40;47.80;100510;;;;547194;259;23153;-82
2022/06/24 09:06:15;;;;;;;12.85;3.50;;;49.30;31.70;47.40;100503;;;;547590;259;23201;-78
2022/06/24 09:08:40;;;;;;;12.50;2.83;;;48.80;31.90;47.40;100509;;;;547204;259;23213;-77
2022/06/24 09:11:12;;;;;;;13.82;2.78;;;48.70;31.80;47.20;100502;;;;555761;256;23170;-84
2022/06/24 09:13:49;;;;;;;8.20;3.03;;;48.70;31.80;47.40;100498;;;;550811;257;23202;-77
2022/06/24 09:16:18;;;;;;;15.25;3.25;;;48.90;31.80;47.90;100503;;;;557175;257;23168;-77
2022/06/24 09:18:52;;;;;;;13.15;3.53;;;48.90;31.80;48.00;100504;;;;538525;263;23255;-76
2022/06/24 09:21:28;;;;;;;35.60;4.43;;;49.10;31.70;47.90;100496;;;;556346;255;23162;-77
2022/06/24 09:23:56;;;;;;;10.05;3.00;;;49.10;31.70;48.00;100485;;;;555705;254;23155;-76
2022/06/24 09:26:33;;;;;;;11.02;2.70;;;49.20;31.50;48.50;100495;;;;550738;258;23211;-80
2022/06/24 09:29:04;;;;;;;5.75;2.70;;;49.50;31.60;49.10;100489;;;;546053;258;23176;-81
2022/06/24 09:31:32;;;;;;;3.55;3.25;;;50.00;31.70;50.10;100493;;;;550908;258;23196;-84
2022/06/24 09:33:57;;;;;;;7.55;3.35;;;50.90;30.80;49.10;100499;;;;555402;256;23151;-80
2022/06/24 09:36:25;;;;;;;14.10;3.25;;;50.80;30.50;48.10;100486;;;;545002;259;23253;-80
2022/06/24 09:39:09;;;;;;;9.52;3.03;;;50.00;30.70;47.50;100494;;;;547405;259;23201;-86
2022/06/24 09:41:30;;;;;;;8.65;3.10;;;49.40;31.20;47.50;100492;;;;545098;259;23279;-83
2022/06/24 09:43:54;;;;;;;16.12;3.60;;;48.90;31.80;46.80;100489;;;;555568;256;23167;-78
2022/06/24 09:46:26;;;;;;;21.30;3.40;;;48.60;31.70;46.50;100488;;;;546766;259;23147;-76
2022/06/24 09:48:57;;;;;;;10.80;2.72;;;48.30;31.60;45.40;100475;;;;550483;254;23150;-76
2022/06/24 09:51:21;;;;;;;14.60;3.15;;;47.30;32.60;44.70;100473;;;;547114;259;23174;-79
2022/06/24 09:53:51;;;;;;;13.50;3.97;;;46.60;33.40;44.80;100494;;;;545001;261;23254;-78
2022/06/24 09:56:20;;;;;;;6.28;2.85;;;46.40;33.70;44.40;100474;;;;546812;259;23152;-78
2022/06/24 10:00:40;;;;;;;6.37;3.10;;;46.10;33.90;44.50;100476;;;;546585;259;23148;-77
2022/06/24 10:01:15;;;;;;;10.63;3.10;;;46.10;34.20;44.60;100470;;;;555243;257;23169;-84
2022/06/24 10:03:43;;;;;;;4.60;2.35;;;46.10;33.90;45.30;100464;;;;538459;263;23183;-77
2022/06/24 10:06:11;;;;;;;3.78;2.30;;;46.60;33.90;45.70;100470;;;;545068;263;23217;-80
2022/06/24 10:08:39;;;;;;;5.82;2.37;;;47.10;33.50;45.60;100470;;;;544666;259;23149;-77
2022/06/24 10:11:07;;;;;;;6.45;2.78;;;47.10;33.30;46.00;100479;;;;554874;254;23171;-78
2022/06/24 10:13:39;;;;;;;5.90;2.78;;;47.50;33.40;45.10;100467;;;;555313;255;23211;-85
2022/06/24 10:16:05;;;;;;;33.97;5.00;;;47.00;33.60;44.20;100463;;;;548340;258;23165;-81
2022/06/24 10:18:44;;;;;;;6.60;2.85;;;46.10;34.30;42.90;100458;;;;545505;259;23151;-84
2022/06/24 10:21:12;;;;;;;7.40;3.10;;;44.90;35.10;42.20;100473;;;;545584;258;23211;-80
2022/06/24 10:23:55;;;;;;;52.47;8.60;;;44.00;36.80;41.40;100455;;;;555579;256;23199;-82
2022/06/24 10:26:32;;;;;;;23.77;3.65;;;43.10;37.10;40.60;100460;;;;556382;257;24228;-80
2022/06/24 10:29:08;;;;;;;8.18;2.78;;;42.30;37.90;39.60;100456;;;;546352;258;23146;-76
2022/06/24 10:31:49;;;;;;;6.97;2.35;;;41.30;38.80;38.90;100452;;;;545877;258;23139;-78
2022/06/24 10:34:25;;;;;;;4.28;2.62;;;40.50;39.70;38.50;100445;;;;545316;258;23186;-78
2022/06/24 10:37:05;;;;;;;3.00;2.70;;;39.90;40.40;37.70;100438;;;;545659;258;23198;-77
2022/06/24 10:39:33;;;;;;;68.65;7.72;;;39.20;40.80;37.20;100425;;;;545715;258;23167;-84
2022/06/24 10:42:10;;;;;;;24.35;3.25;;;38.40;41.70;36.60;100439;;;;546650;258;23172;-78
2022/06/24 10:44:42;;;;;;;6.57;2.65;;;36.40;44.00;35.10;100443;;;;550013;259;23174;-84
2022/06/24 10:47:14;;;;;;;8.80;2.53;;;34.80;46.00;33.70;100430;;;;548284;259;23167;-82
2022/06/24 10:52:35;;;;;;;3.78;2.28;;;33.50;48.20;31.80;100434;;;;555312;256;23198;-83
2022/06/24 10:55:29;;;;;;;11.20;2.33;;;32.40;49.70;30.90;100428;;;;545314;263;23253;-79
2022/06/24 10:57:52;;;;;;;7.07;3.43;;;31.50;50.30;29.90;100429;;;;555337;254;23158;-87
2022/06/24 11:00:26;;;;;;;3.87;2.30;;;30.60;51.90;29.10;100435;;;;555207;255;23163;-85
2022/06/24 11:03:06;;;;;;;11.30;3.07;;;29.70;53.20;28.40;100425;;;;555116;255;23296;-79
2022/06/24 11:05:44;;;;;;;15.07;3.03;;;29.00;54.70;28.10;100411;;;;545708;263;23140;-77
2022/06/24 11:08:23;;;;;;;6.10;2.37;;;28.50;55.60;27.90;100412;;;;548118;259;23155;-76
2022/06/24 11:10:51;;;;;;;15.47;2.80;;;28.20;56.60;27.70;100421;;;;555983;257;23143;-78
2022/06/24 11:13:19;;;;;;;21.57;2.90;;;28.00;56.80;27.40;100423;;;;547831;259;24125;-80
2022/06/24 11:15:46;;;;;;;6.13;2.80;;;27.80;56.40;27.10;100409;;;;537996;263;23188;-77
2022/06/24 11:18:20;;;;;;;6.60;2.30;;;27.50;57.40;26.90;100418;;;;555725;258;24217;-80
2022/06/24 11:20:52;;;;;;;10.53;2.47;;;27.30;58.30;26.70;100423;;;;555694;256;23167;-80
2022/06/24 11:23:20;;;;;;;8.30;1.90;;;27.10;58.00;26.40;100411;;;;555750;257;24146;-79
2022/06/24 11:25:49;;;;;;;13.53;2.70;;;26.90;58.90;26.30;100409;;;;548036;257;23200;-78
2022/06/24 11:28:20;;;;;;;7.37;2.90;;;26.70;58.90;26.20;100407;;;;555591;259;24142;-82